H.kanter — ESUB — position and weather

sailwx.info

Track history (hours):
 
Tides and Currents Weather Stations Pressure Air Temp Water Temp Dewpoint Dewpoint Depression Visibility Wind Speed Wind Dir Waves Ship Positions

H.kanter

Last reported at 2016-Jan-30 17:33 UTC. Time now 2016-Feb-09 13:54 UTC.
Position N 59°34' E 024°54'.
Warning: this ship's position is 9 days out of date.

Length 33 m; draft 4.8 m.

Type: Tug. MMSI: 276504000.

Date/timePositionNaut miles runAvg speedWind from/ knotsBaromVisibWave heightAir tempDewpointWater temp
2016-Jan-30 17:33N 59°34' E 024°54'7 7.1
2016-Jan-30 16:33N 59°35' E 024°40'8 7.7
2016-Jan-30 15:33N 59°27' E 024°39'3 2.8
2016-Jan-30 14:33N 59°30' E 024°40'4 4.3
2016-Jan-30 13:31N 59°27' E 024°46'0 0.0
2016-Jan-30 12:32N 59°27' E 024°46'0 0.0
2016-Jan-30 11:33N 59°27' E 024°46'0 0.0
2016-Jan-30 10:31N 59°27' E 024°46'0 0.0
2016-Jan-30 09:31N 59°27' E 024°46'0 0.0
2016-Jan-30 08:32N 59°27' E 024°46'0 0.0
2016-Jan-30 07:33N 59°27' E 024°46'0 0.0
2016-Jan-30 06:30N 59°27' E 024°46'0 0.0
2016-Jan-30 05:25N 59°27' E 024°46'0 0.0
2016-Jan-30 04:32N 59°27' E 024°46'0 0.0
2016-Jan-30 03:32N 59°27' E 024°46'0 0.0
2016-Jan-30 02:33N 59°27' E 024°46'0 0.0
2016-Jan-30 01:33N 59°27' E 024°46'0 0.0
2016-Jan-30 00:31N 59°27' E 024°46'0 0.0
2016-Jan-29 23:29N 59°27' E 024°46'0 0.0
2016-Jan-29 22:33N 59°27' E 024°46'0 0.0
2016-Jan-29 21:30N 59°27' E 024°46'0 0.0
2016-Jan-29 20:31N 59°27' E 024°46'0 0.0
2016-Jan-29 19:32N 59°27' E 024°46'0 0.0
2016-Jan-29 18:32N 59°27' E 024°46'0 0.0
2016-Jan-29 17:33N 59°27' E 024°46'0 0.0
2016-Jan-29 16:34N 59°27' E 024°46'2 1.8
2016-Jan-29 15:30N 59°28' E 024°43'2 2.0
2016-Jan-29 14:33N 59°27' E 024°46'0 0.0
2016-Jan-29 13:28N 59°27' E 024°46'0 0.0
2016-Jan-29 12:32N 59°27' E 024°46'0 0.0
2016-Jan-29 11:32N 59°27' E 024°46'0 0.0
2016-Jan-29 10:33N 59°27' E 024°46'0 0.0
2016-Jan-29 09:34N 59°27' E 024°46'0 0.0
2016-Jan-29 08:31N 59°27' E 024°46'0 0.0
2016-Jan-29 07:32N 59°27' E 024°46'0 0.0
2016-Jan-29 06:33N 59°27' E 024°46'0 0.0
2016-Jan-29 05:33N 59°27' E 024°46'0 0.0
2016-Jan-29 04:31N 59°27' E 024°46'0 0.0
2016-Jan-29 03:33N 59°27' E 024°46'0 0.0
2016-Jan-29 02:33N 59°27' E 024°46'0 0.0
2016-Jan-29 01:28N 59°27' E 024°46'0 0.0
2016-Jan-29 00:29N 59°27' E 024°46'0 0.0
2016-Jan-28 23:32N 59°27' E 024°46'0 0.1
2016-Jan-28 22:31N 59°27' E 024°46'0 0.1
2016-Jan-28 21:33N 59°27' E 024°46'0 0.0
2016-Jan-28 20:31N 59°27' E 024°46'0 0.0
2016-Jan-28 19:29N 59°27' E 024°46'0 0.0
2016-Jan-28 18:32N 59°27' E 024°46'0 0.0
2016-Jan-28 17:30N 59°27' E 024°46'0 0.0
2016-Jan-28 16:31N 59°27' E 024°46'0 0.0
2016-Jan-28 15:31N 59°27' E 024°46'0 0.0
2016-Jan-28 14:32N 59°27' E 024°46'0 0.0
2016-Jan-28 12:33N 59°27' E 024°46'0 0.0
2016-Jan-28 11:31N 59°27' E 024°46'0 0.0
2016-Jan-28 10:32N 59°27' E 024°46'0 0.0
2016-Jan-28 09:32N 59°27' E 024°46'1 1.3
2016-Jan-28 08:34N 59°28' E 024°46'10 9.7
2016-Jan-28 07:33N 59°38' E 024°42'  
Track history (hours):
 
Tides and Currents Weather Stations Pressure Air Temp Water Temp Dewpoint Dewpoint Depression Visibility Wind Speed Wind Dir Waves Ship Positions

H.kanter

Last reported at 2016-Jan-30 17:33 UTC. Time now 2016-Feb-09 13:54 UTC.
Position N 59°34' E 024°54'.
Warning: this ship's position is 9 days out of date.

Length 33 m; draft 4.8 m.

Type: Tug. MMSI: 276504000.

Date/timePositionNaut miles runAvg speedWind from/ knotsBaromVisibWave heightAir tempDewpointWater temp
2016-Jan-30 17:33N 59°34' E 024°54'7 7.1
2016-Jan-30 16:33N 59°35' E 024°40'8 7.7
2016-Jan-30 15:33N 59°27' E 024°39'3 2.8
2016-Jan-30 14:33N 59°30' E 024°40'4 4.3
2016-Jan-30 13:31N 59°27' E 024°46'0 0.0
2016-Jan-30 12:32N 59°27' E 024°46'0 0.0
2016-Jan-30 11:33N 59°27' E 024°46'0 0.0
2016-Jan-30 10:31N 59°27' E 024°46'0 0.0
2016-Jan-30 09:31N 59°27' E 024°46'0 0.0
2016-Jan-30 08:32N 59°27' E 024°46'0 0.0
2016-Jan-30 07:33N 59°27' E 024°46'0 0.0
2016-Jan-30 06:30N 59°27' E 024°46'0 0.0
2016-Jan-30 05:25N 59°27' E 024°46'0 0.0
2016-Jan-30 04:32N 59°27' E 024°46'0 0.0
2016-Jan-30 03:32N 59°27' E 024°46'0 0.0
2016-Jan-30 02:33N 59°27' E 024°46'0 0.0
2016-Jan-30 01:33N 59°27' E 024°46'0 0.0
2016-Jan-30 00:31N 59°27' E 024°46'0 0.0
2016-Jan-29 23:29N 59°27' E 024°46'0 0.0
2016-Jan-29 22:33N 59°27' E 024°46'0 0.0
2016-Jan-29 21:30N 59°27' E 024°46'0 0.0
2016-Jan-29 20:31N 59°27' E 024°46'0 0.0
2016-Jan-29 19:32N 59°27' E 024°46'0 0.0
2016-Jan-29 18:32N 59°27' E 024°46'0 0.0
2016-Jan-29 17:33N 59°27' E 024°46'0 0.0
2016-Jan-29 16:34N 59°27' E 024°46'2 1.8
2016-Jan-29 15:30N 59°28' E 024°43'2 2.0
2016-Jan-29 14:33N 59°27' E 024°46'0 0.0
2016-Jan-29 13:28N 59°27' E 024°46'0 0.0
2016-Jan-29 12:32N 59°27' E 024°46'0 0.0
2016-Jan-29 11:32N 59°27' E 024°46'0 0.0
2016-Jan-29 10:33N 59°27' E 024°46'0 0.0
2016-Jan-29 09:34N 59°27' E 024°46'0 0.0
2016-Jan-29 08:31N 59°27' E 024°46'0 0.0
2016-Jan-29 07:32N 59°27' E 024°46'0 0.0
2016-Jan-29 06:33N 59°27' E 024°46'0 0.0
2016-Jan-29 05:33N 59°27' E 024°46'0 0.0
2016-Jan-29 04:31N 59°27' E 024°46'0 0.0
2016-Jan-29 03:33N 59°27' E 024°46'0 0.0
2016-Jan-29 02:33N 59°27' E 024°46'0 0.0
2016-Jan-29 01:28N 59°27' E 024°46'0 0.0
2016-Jan-29 00:29N 59°27' E 024°46'0 0.0
2016-Jan-28 23:32N 59°27' E 024°46'0 0.1
2016-Jan-28 22:31N 59°27' E 024°46'0 0.1
2016-Jan-28 21:33N 59°27' E 024°46'0 0.0
2016-Jan-28 20:31N 59°27' E 024°46'0 0.0
2016-Jan-28 19:29N 59°27' E 024°46'0 0.0
2016-Jan-28 18:32N 59°27' E 024°46'0 0.0
2016-Jan-28 17:30N 59°27' E 024°46'0 0.0
2016-Jan-28 16:31N 59°27' E 024°46'0 0.0
2016-Jan-28 15:31N 59°27' E 024°46'0 0.0
2016-Jan-28 14:32N 59°27' E 024°46'0 0.0
2016-Jan-28 12:33N 59°27' E 024°46'0 0.0
2016-Jan-28 11:31N 59°27' E 024°46'0 0.0
2016-Jan-28 10:32N 59°27' E 024°46'0 0.0
2016-Jan-28 09:32N 59°27' E 024°46'1 1.3
2016-Jan-28 08:34N 59°28' E 024°46'10 9.7
2016-Jan-28 07:33N 59°38' E 024°42'  

Dump ship's entire track history